Time;durP1;ratioP1;P1;durP2;ratioP2;P2;SDS_P1;SDS_P2;PMS_P1;PMS_P2;Temp;Humidity;BMP_temperature;BMP_pressure;BME280_temperature;BME280_humidity;BME280_pressure;Samples;Min_cycle;Max_cycle;Signal;HPM_P1;HPM_P2
2022/09/18 00:02:09;;;;;;;7.93;2.43;;;;;6.70;94078.00;;;;7400357;19;20136;-77
2022/09/18 00:04:43;;;;;;;4.70;2.50;;;;;6.80;94090.00;;;;7396582;19;20456;-79
2022/09/18 00:07:10;;;;;;;7.57;2.80;;;;;6.70;94093.00;;;;7403996;19;20502;-78
2022/09/18 00:09:38;;;;;;;5.33;2.10;;;;;6.80;94090.00;;;;7398561;19;20500;-77
2022/09/18 00:12:11;;;;;;;8.37;2.30;;;;;6.80;94084.00;;;;7396020;19;20165;-78
2022/09/18 00:14:39;;;;;;;10.70;2.83;;;;;6.80;94087.00;;;;7394178;19;20117;-78
2022/09/18 00:17:06;;;;;;;9.17;2.43;;;;;6.60;94088.00;;;;7401735;19;20141;-77
2022/09/18 00:19:47;;;;;;;6.30;2.50;;;;;6.70;94092.00;;;;7406275;19;20144;-77
2022/09/18 00:22:15;;;;;;;7.57;2.60;;;;;6.80;94094.00;;;;7407744;19;20481;-76
2022/09/18 00:24:48;;;;;;;8.53;2.83;;;;;6.70;94092.00;;;;7397090;19;20129;-78
2022/09/18 00:27:16;;;;;;;7.60;2.60;;;;;6.70;94093.00;;;;7404771;19;20213;-78
2022/09/18 00:29:43;;;;;;;6.97;2.60;;;;;6.50;94099.00;;;;7410008;19;20137;-77
2022/09/18 00:32:17;;;;;;;6.27;2.23;;;;;6.60;94100.00;;;;7410742;19;20903;-79
2022/09/18 00:34:45;;;;;;;6.40;2.70;;;;;6.50;94093.00;;;;7414088;19;20125;-78
2022/09/18 00:37:13;;;;;;;8.63;2.20;;;;;6.50;94093.00;;;;7412531;19;20160;-78
2022/09/18 00:39:46;;;;;;;5.00;2.23;;;;;6.60;94088.00;;;;7408698;19;20131;-77
2022/09/18 00:42:17;;;;;;;7.40;2.23;;;;;6.50;94090.00;;;;7406475;19;20169;-76
2022/09/18 00:44:46;;;;;;;11.83;2.40;;;;;6.50;94088.00;;;;7408178;19;20136;-76
2022/09/18 00:47:28;;;;;;;7.83;2.20;;;;;6.50;94086.00;;;;7406135;19;20133;-76
2022/09/18 00:50:10;;;;;;;5.60;2.30;;;;;6.50;94081.00;;;;7408945;19;20117;-77
2022/09/18 00:52:55;;;;;;;7.73;2.40;;;;;6.50;94081.00;;;;7412882;19;20129;-77
2022/09/18 00:55:32;;;;;;;7.60;2.13;;;;;6.50;94083.00;;;;7412554;19;20121;-77
2022/09/18 00:58:07;;;;;;;7.00;2.57;;;;;6.50;94077.00;;;;7402635;19;20149;-76
2022/09/18 01:00:34;;;;;;;6.50;2.43;;;;;6.50;94072.00;;;;7398530;19;20139;-77
2022/09/18 01:03:03;;;;;;;11.27;2.43;;;;;6.40;94073.00;;;;7400653;19;20148;-76
2022/09/18 01:05:55;;;;;;;7.70;2.27;;;;;6.40;94077.00;;;;7398488;19;20583;-76
2022/09/18 01:08:49;;;;;;;6.90;2.43;;;;;6.60;94078.00;;;;7404284;19;20136;-76
2022/09/18 01:11:32;;;;;;;8.63;2.57;;;;;6.50;94082.00;;;;7407830;19;20137;-76
2022/09/18 01:14:24;;;;;;;10.07;2.30;;;;;6.50;94078.00;;;;7406405;19;20647;-76
2022/09/18 01:17:05;;;;;;;4.93;2.40;;;;;6.50;94081.00;;;;7393599;19;20168;-76
2022/09/18 01:19:59;;;;;;;6.70;2.60;;;;;6.50;94078.00;;;;7398538;19;20495;-77
2022/09/18 01:22:46;;;;;;;6.13;2.30;;;;;6.50;94075.00;;;;7398590;19;20144;-77
2022/09/18 01:25:48;;;;;;;6.27;2.60;;;;;6.50;94075.00;;;;7398660;19;20184;-77
2022/09/18 01:28:42;;;;;;;5.53;2.40;;;;;6.60;94062.00;;;;7394077;19;20140;-77
2022/09/18 01:31:21;;;;;;;9.13;2.63;;;;;6.60;94067.00;;;;7395233;19;20132;-78
2022/09/18 01:34:11;;;;;;;11.93;2.63;;;;;6.50;94060.00;;;;7397293;19;20194;-77
2022/09/18 01:36:44;;;;;;;8.07;2.67;;;;;6.50;94074.00;;;;7394526;19;20591;-78
2022/09/18 01:39:45;;;;;;;7.27;2.40;;;;;6.60;94069.00;;;;7396539;19;20601;-78
2022/09/18 01:42:15;;;;;;;6.33;2.30;;;;;6.70;94066.00;;;;7400693;19;20149;-78
2022/09/18 01:44:53;;;;;;;4.77;2.30;;;;;6.70;94064.00;;;;7404382;19;20190;-78
2022/09/18 01:47:25;;;;;;;5.50;2.60;;;;;6.60;94061.00;;;;7400898;19;20225;-77
2022/09/18 01:50:00;;;;;;;6.77;1.90;;;;;6.70;94071.00;;;;7403997;19;20132;-78
2022/09/18 01:52:39;;;;;;;5.47;2.47;;;;;6.70;94071.00;;;;7399721;19;20135;-77
2022/09/18 01:55:21;;;;;;;2.70;1.90;;;;;6.70;94063.00;;;;7400503;19;20137;-76
2022/09/18 01:57:54;;;;;;;3.63;2.03;;;;;6.70;94064.00;;;;7396399;19;20525;-77
2022/09/18 02:00:30;;;;;;;5.70;1.97;;;;;6.60;94068.00;;;;7392644;19;20147;-78
2022/09/18 02:03:12;;;;;;;4.83;1.93;;;;;6.60;94052.00;;;;7393822;19;20200;-78
2022/09/18 02:06:00;;;;;;;7.27;1.97;;;;;6.50;94060.00;;;;7392285;19;20133;-77
2022/09/18 02:08:49;;;;;;;8.73;1.97;;;;;6.50;94054.00;;;;7396998;19;20140;-78
2022/09/18 02:11:23;;;;;;;4.37;2.10;;;;;6.60;94058.00;;;;7397867;19;20147;-78
2022/09/18 02:14:13;;;;;;;4.67;2.50;;;;;6.70;94058.00;;;;7395786;19;20125;-78
2022/09/18 02:17:02;;;;;;;4.27;2.40;;;;;6.60;94062.00;;;;7392715;19;20523;-76
2022/09/18 02:19:52;;;;;;;3.17;2.23;;;;;6.60;94057.00;;;;7390910;19;20149;-77
2022/09/18 02:22:30;;;;;;;4.17;2.13;;;;;6.70;94050.00;;;;7392091;19;20142;-78
2022/09/18 02:25:03;;;;;;;7.03;2.90;;;;;6.70;94053.00;;;;7395191;19;20125;-77
2022/09/18 02:27:38;;;;;;;3.63;2.87;;;;;6.80;94053.00;;;;7395069;19;20125;-76
2022/09/18 02:30:07;;;;;;;10.00;3.67;;;;;6.70;94053.00;;;;7395361;19;20632;-76
2022/09/18 02:32:36;;;;;;;5.23;3.43;;;;;6.70;94054.00;;;;7393264;19;20576;-76
2022/09/18 02:35:11;;;;;;;5.17;3.30;;;;;6.70;94057.00;;;;7397380;19;20125;-76
2022/09/18 02:37:51;;;;;;;6.53;3.60;;;;;6.70;94059.00;;;;7392795;19;20600;-75
2022/09/18 02:40:49;;;;;;;6.20;3.20;;;;;6.70;94056.00;;;;7395829;19;20128;-76
2022/09/18 02:43:47;;;;;;;5.10;3.20;;;;;6.80;94052.00;;;;7395991;19;20117;-76
2022/09/18 02:46:43;;;;;;;5.57;3.67;;;;;6.70;94050.00;;;;7399936;19;20125;-76
2022/09/18 02:49:32;;;;;;;7.53;3.50;;;;;6.70;94050.00;;;;7401707;19;20125;-77
2022/09/18 02:52:31;;;;;;;6.20;3.70;;;;;6.60;94047.00;;;;7398804;19;20438;-77
2022/09/18 02:55:15;;;;;;;4.60;4.10;;;;;6.70;94045.00;;;;7395981;19;20141;-76
2022/09/18 02:58:06;;;;;;;6.80;4.50;;;;;6.70;94048.00;;;;7398533;19;20125;-76
2022/09/18 03:00:35;;;;;;;10.33;4.70;;;;;6.60;94062.00;;;;7402898;19;20464;-75
2022/09/18 03:03:13;;;;;;;8.47;5.17;;;;;6.70;94055.00;;;;7401543;19;20568;-77
2022/09/18 03:05:41;;;;;;;6.90;4.30;;;;;6.60;94051.00;;;;7401580;19;20129;-77
2022/09/18 03:08:09;;;;;;;11.97;4.97;;;;;6.70;94049.00;;;;7400477;19;20121;-76
2022/09/18 03:10:42;;;;;;;5.67;4.77;;;;;6.70;94040.00;;;;7402316;19;20204;-76
2022/09/18 03:13:10;;;;;;;8.30;4.90;;;;;6.80;94034.00;;;;7405948;19;20152;-76
2022/09/18 03:15:37;;;;;;;7.00;4.87;;;;;6.80;94039.00;;;;7401362;19;20598;-77
2022/09/18 03:18:25;;;;;;;8.13;4.33;;;;;6.70;94038.00;;;;7399871;19;20136;-77
2022/09/18 03:20:53;;;;;;;7.73;4.60;;;;;6.60;94030.00;;;;7408613;19;20125;-77
2022/09/18 03:23:27;;;;;;;10.60;4.63;;;;;6.70;94027.00;;;;7411605;19;20121;-78
2022/09/18 03:25:54;;;;;;;5.33;4.50;;;;;6.70;94041.00;;;;7414528;19;20121;-76
2022/09/18 03:28:21;;;;;;;4.13;3.77;;;;;6.70;94027.00;;;;7411502;19;20125;-76
2022/09/18 03:30:55;;;;;;;5.37;4.33;;;;;6.70;94038.00;;;;7408383;19;20137;-78
2022/09/18 03:33:23;;;;;;;7.53;4.63;;;;;6.70;94040.00;;;;7407651;19;20223;-77
2022/09/18 03:35:50;;;;;;;9.57;5.70;;;;;6.70;94034.00;;;;7407953;19;20172;-77
2022/09/18 03:38:24;;;;;;;7.10;4.50;;;;;6.60;94033.00;;;;7404392;19;20149;-77
2022/09/18 03:40:52;;;;;;;9.17;4.70;;;;;6.60;94042.00;;;;7406037;19;20598;-78
2022/09/18 03:43:19;;;;;;;9.43;4.50;;;;;6.70;94039.00;;;;7405360;19;20120;-78
2022/09/18 03:45:53;;;;;;;8.37;5.53;;;;;6.60;94045.00;;;;7398708;19;20125;-77
2022/09/18 03:48:21;;;;;;;7.63;5.33;;;;;6.60;94026.00;;;;7398914;19;20153;-78
2022/09/18 03:50:49;;;;;;;5.47;4.53;;;;;6.60;94038.00;;;;7402752;19;20125;-78
2022/09/18 03:53:23;;;;;;;7.23;4.87;;;;;6.50;94036.00;;;;7401329;19;20113;-79
2022/09/18 03:55:51;;;;;;;7.80;4.30;;;;;6.70;94051.00;;;;7400896;19;20132;-78
2022/09/18 03:58:20;;;;;;;5.80;4.63;;;;;6.70;94047.00;;;;7401275;19;20133;-79
2022/09/18 04:00:54;;;;;;;7.40;5.50;;;;;6.70;94045.00;;;;7402158;19;20624;-77
2022/09/18 04:03:22;;;;;;;8.43;4.83;;;;;6.70;94042.00;;;;7400597;19;20125;-78
2022/09/18 04:05:50;;;;;;;8.87;6.03;;;;;6.70;94048.00;;;;7398194;19;20125;-77
2022/09/18 04:08:24;;;;;;;12.00;5.73;;;;;6.70;94045.00;;;;7399894;19;20124;-77
2022/09/18 04:10:51;;;;;;;8.13;5.33;;;;;6.70;94050.00;;;;7400112;19;20129;-76
2022/09/18 04:13:19;;;;;;;8.47;5.63;;;;;6.80;94054.00;;;;7401046;19;20129;-78
2022/09/18 04:16:07;;;;;;;7.90;5.80;;;;;6.70;94058.00;;;;7405482;19;20120;-76
2022/09/18 04:18:44;;;;;;;7.93;5.20;;;;;6.60;94059.00;;;;7401031;19;20133;-78
2022/09/18 04:21:18;;;;;;;19.40;7.30;;;;;6.60;94074.00;;;;7401904;19;20188;-76
2022/09/18 04:23:46;;;;;;;9.37;5.43;;;;;6.70;94069.00;;;;7399807;19;20113;-77
2022/09/18 04:26:13;;;;;;;8.10;5.00;;;;;6.70;94069.00;;;;7400268;19;20236;-77
2022/09/18 04:28:48;;;;;;;6.83;5.50;;;;;6.60;94067.00;;;;7398171;19;20144;-78
2022/09/18 04:31:15;;;;;;;8.10;5.37;;;;;6.70;94053.00;;;;7402453;19;20144;-79
2022/09/18 04:33:46;;;;;;;7.93;6.10;;;;;6.70;94050.00;;;;7403925;19;20128;-78
2022/09/18 04:36:19;;;;;;;10.70;6.07;;;;;6.70;94055.00;;;;7403275;19;20137;-78
2022/09/18 04:38:47;;;;;;;15.53;6.53;;;;;6.70;94061.00;;;;7402815;19;20125;-79
2022/09/18 04:41:14;;;;;;;17.33;7.30;;;;;6.70;94059.00;;;;7402963;19;20650;-77
2022/09/18 04:43:48;;;;;;;9.07;7.13;;;;;6.70;94060.00;;;;7406047;19;20133;-79
2022/09/18 04:46:16;;;;;;;15.00;7.60;;;;;6.70;94062.00;;;;7399084;19;20125;-79
2022/09/18 04:48:48;;;;;;;10.10;6.67;;;;;6.60;94051.00;;;;7403731;19;20157;-79
2022/09/18 04:51:21;;;;;;;11.10;6.87;;;;;6.80;94055.00;;;;7402662;19;20131;-80
2022/09/18 04:53:49;;;;;;;16.60;7.13;;;;;6.90;94048.00;;;;7398923;19;20125;-79
2022/09/18 04:56:17;;;;;;;10.87;6.77;;;;;6.80;94045.00;;;;7401750;19;20128;-78
2022/09/18 04:58:51;;;;;;;8.53;6.53;;;;;6.70;94049.00;;;;7401644;19;20136;-80
2022/09/18 05:01:18;;;;;;;12.87;7.17;;;;;6.70;94045.00;;;;7397773;19;20452;-80
2022/09/18 05:03:46;;;;;;;13.27;6.90;;;;;6.80;94039.00;;;;7393653;19;20137;-79
2022/09/18 05:06:19;;;;;;;17.03;6.13;;;;;6.80;94041.00;;;;7398271;19;20129;-78
2022/09/18 05:08:47;;;;;;;11.17;6.47;;;;;6.60;94051.00;;;;7396306;19;20121;-79
2022/09/18 05:11:14;;;;;;;12.97;6.50;;;;;6.80;94050.00;;;;7395771;19;20125;-79
2022/09/18 05:13:49;;;;;;;9.90;6.60;;;;;6.80;94062.00;;;;7396358;19;20604;-78
2022/09/18 05:16:29;;;;;;;11.73;6.77;;;;;6.80;94054.00;;;;7393278;19;20141;-78
2022/09/18 05:19:04;;;;;;;11.17;6.30;;;;;6.70;94054.00;;;;7396454;19;20154;-80
2022/09/18 05:21:31;;;;;;;9.90;6.47;;;;;6.80;94053.00;;;;7398210;19;20137;-79
2022/09/18 05:23:58;;;;;;;14.90;6.63;;;;;6.90;94057.00;;;;7394760;19;20155;-79
2022/09/18 05:26:33;;;;;;;15.93;7.33;;;;;6.80;94060.00;;;;7397332;19;20142;-80
2022/09/18 05:29:01;;;;;;;12.70;6.97;;;;;6.90;94056.00;;;;7399124;19;20117;-80
2022/09/18 05:31:28;;;;;;;10.53;6.17;;;;;6.80;94057.00;;;;7397472;19;20603;-80
2022/09/18 05:34:02;;;;;;;18.43;7.10;;;;;6.80;94060.00;;;;7395898;19;20141;-77
2022/09/18 05:36:29;;;;;;;13.03;6.73;;;;;6.80;94066.00;;;;7394791;19;20145;-80
2022/09/18 05:38:57;;;;;;;11.03;6.43;;;;;6.70;94062.00;;;;7396332;19;20128;-78
2022/09/18 05:41:30;;;;;;;10.97;6.17;;;;;6.90;94058.00;;;;7395658;19;20589;-79
2022/09/18 05:43:58;;;;;;;11.73;6.43;;;;;6.90;94061.00;;;;7397847;19;20394;-79
2022/09/18 05:46:25;;;;;;;15.47;6.60;;;;;6.80;94059.00;;;;7396341;19;20125;-79
2022/09/18 05:49:00;;;;;;;10.23;5.90;;;;;6.90;94067.00;;;;7396432;19;20128;-79
2022/09/18 05:51:27;;;;;;;12.07;5.60;;;;;7.00;94065.00;;;;7399250;19;20602;-81
2022/09/18 05:53:55;;;;;;;11.40;5.10;;;;;6.90;94062.00;;;;7397325;19;20125;-79
2022/09/18 05:56:30;;;;;;;9.07;5.07;;;;;7.00;94062.00;;;;7398702;19;20611;-78
2022/09/18 05:58:59;;;;;;;9.33;4.87;;;;;6.90;94064.00;;;;7396229;19;20145;-80
2022/09/18 06:01:29;;;;;;;10.30;5.50;;;;;6.90;94074.00;;;;7392208;19;20141;-81
2022/09/18 06:04:12;;;;;;;13.37;4.87;;;;;7.00;94064.00;;;;7405073;19;20173;-81
2022/09/18 06:06:41;;;;;;;14.77;5.07;;;;;6.90;94068.00;;;;7410511;19;20148;-80
2022/09/18 06:09:17;;;;;;;8.93;5.17;;;;;6.90;94077.00;;;;7415034;19;20144;-79
2022/09/18 06:11:45;;;;;;;10.97;4.87;;;;;6.90;94070.00;;;;7408217;19;20168;-80
2022/09/18 06:14:18;;;;;;;7.30;4.37;;;;;7.00;94070.00;;;;7404689;19;20200;-80
2022/09/18 06:17:05;;;;;;;6.33;3.97;;;;;6.90;94078.00;;;;7398695;19;20148;-81
2022/09/18 06:19:42;;;;;;;9.97;4.17;;;;;7.00;94077.00;;;;7399881;19;20663;-80
2022/09/18 06:22:16;;;;;;;8.60;4.03;;;;;7.00;94077.00;;;;7398829;19;20133;-82
2022/09/18 06:24:43;;;;;;;6.97;4.23;;;;;7.00;94088.00;;;;7396519;19;20143;-79
2022/09/18 06:27:12;;;;;;;7.37;3.63;;;;;6.90;94088.00;;;;7392711;19;20144;-80
2022/09/18 06:29:46;;;;;;;10.20;4.50;;;;;6.90;94087.00;;;;7400304;19;20173;-79
2022/09/18 06:32:13;;;;;;;14.03;4.20;;;;;6.90;94083.00;;;;7396523;19;20196;-81
2022/09/18 06:34:42;;;;;;;6.47;3.90;;;;;6.90;94094.00;;;;7400148;19;20145;-80
2022/09/18 06:37:17;;;;;;;8.87;3.87;;;;;6.90;94096.00;;;;7394799;19;20144;-79
2022/09/18 06:39:45;;;;;;;7.23;4.33;;;;;6.90;94102.00;;;;7395536;19;20139;-80
2022/09/18 06:42:14;;;;;;;7.10;3.63;;;;;7.00;94099.00;;;;7395500;19;20161;-79
2022/09/18 06:44:50;;;;;;;3.70;3.27;;;;;7.00;94106.00;;;;7394393;19;20513;-79
2022/09/18 06:47:18;;;;;;;6.37;3.50;;;;;7.00;94104.00;;;;7391148;19;20132;-81
2022/09/18 06:49:45;;;;;;;6.27;4.13;;;;;7.00;94103.00;;;;7393858;19;20181;-79
2022/09/18 06:52:21;;;;;;;4.40;3.47;;;;;6.90;94096.00;;;;7392877;19;20125;-79
2022/09/18 06:54:49;;;;;;;7.50;3.57;;;;;6.90;94096.00;;;;7397900;19;20137;-81
2022/09/18 06:57:17;;;;;;;7.00;3.17;;;;;6.90;94112.00;;;;7399694;19;20128;-80
2022/09/18 06:59:53;;;;;;;3.97;3.13;;;;;6.90;94099.00;;;;7402936;19;20129;-79
2022/09/18 07:02:22;;;;;;;6.27;3.30;;;;;6.90;94102.00;;;;7401606;19;20125;-79
2022/09/18 07:04:51;;;;;;;7.33;3.17;;;;;6.80;94102.00;;;;7402942;19;20143;-79
2022/09/18 07:07:26;;;;;;;9.37;3.50;;;;;6.90;94110.00;;;;7402459;19;20147;-79
2022/09/18 07:09:54;;;;;;;5.47;3.33;;;;;6.90;94098.00;;;;7401116;19;20125;-79
2022/09/18 07:12:21;;;;;;;9.60;4.60;;;;;6.80;94112.00;;;;7399400;19;20164;-79
2022/09/18 07:14:56;;;;;;;7.27;3.83;;;;;6.80;94101.00;;;;7404984;19;20140;-79
2022/09/18 07:17:37;;;;;;;6.03;3.87;;;;;6.90;94106.00;;;;7400001;19;20239;-80
2022/09/18 07:20:13;;;;;;;8.50;4.10;;;;;6.90;94110.00;;;;7403118;19;20517;-80
2022/09/18 07:22:40;;;;;;;10.20;4.30;;;;;6.90;94106.00;;;;7401906;19;20611;-78
2022/09/18 07:25:15;;;;;;;8.37;4.27;;;;;6.80;94109.00;;;;7398846;19;20141;-79
2022/09/18 07:27:50;;;;;;;9.00;4.63;;;;;7.00;94109.00;;;;7399512;19;20591;-78
2022/09/18 07:30:18;;;;;;;8.80;3.97;;;;;6.90;94111.00;;;;7398966;19;20132;-78
2022/09/18 07:32:46;;;;;;;11.40;3.70;;;;;6.80;94116.00;;;;7398169;19;20200;-79
2022/09/18 07:35:20;;;;;;;7.67;4.07;;;;;6.90;94115.00;;;;7398386;19;20109;-79
2022/09/18 07:37:49;;;;;;;5.53;4.10;;;;;6.80;94116.00;;;;7399313;19;20469;-78
2022/09/18 07:40:17;;;;;;;7.27;3.70;;;;;6.90;94124.00;;;;7397483;19;20197;-78
2022/09/18 07:42:51;;;;;;;8.33;3.80;;;;;6.90;94114.00;;;;7397651;19;20167;-77
2022/09/18 07:45:20;;;;;;;6.90;3.90;;;;;7.00;94136.00;;;;7397170;19;20631;-80
2022/09/18 07:47:47;;;;;;;6.20;4.00;;;;;7.00;94111.00;;;;7397578;19;20149;-77
2022/09/18 07:50:22;;;;;;;6.07;4.27;;;;;7.00;94119.00;;;;7397124;19;20622;-77
2022/09/18 07:52:58;;;;;;;7.10;4.70;;;;;7.10;94112.00;;;;7399051;19;20149;-76
2022/09/18 07:55:35;;;;;;;7.60;4.30;;;;;7.10;94121.00;;;;7397177;19;20159;-78
2022/09/18 07:58:05;;;;;;;7.27;5.20;;;;;7.20;94120.00;;;;7398806;19;20156;-77
2022/09/18 08:00:40;;;;;;;12.20;5.10;;;;;7.10;94115.00;;;;7396577;19;20157;-78
2022/09/18 08:03:10;;;;;;;5.83;5.10;;;;;7.20;94121.00;;;;7394476;19;20163;-78
2022/09/18 08:05:39;;;;;;;7.00;4.70;;;;;7.50;94117.00;;;;7395594;19;20478;-79
2022/09/18 08:08:15;;;;;;;6.23;4.60;;;;;7.50;94116.00;;;;7397569;19;20197;-78
2022/09/18 08:10:44;;;;;;;12.37;4.67;;;;;7.50;94121.00;;;;7396360;19;20149;-78
2022/09/18 08:13:12;;;;;;;10.20;4.50;;;;;7.50;94120.00;;;;7392668;19;20141;-77
2022/09/18 08:15:47;;;;;;;7.73;4.03;;;;;7.60;94125.00;;;;7397555;19;20825;-77
2022/09/18 08:18:21;;;;;;;4.67;3.73;;;;;7.50;94132.00;;;;7394106;19;20157;-79
2022/09/18 08:20:56;;;;;;;4.83;3.30;;;;;7.50;94133.00;;;;7397221;19;20117;-78
2022/09/18 08:23:24;;;;;;;5.40;3.73;;;;;7.70;94138.00;;;;7395414;19;20152;-79
2022/09/18 08:25:52;;;;;;;7.97;3.50;;;;;7.70;94134.00;;;;7395585;19;20141;-78
2022/09/18 08:28:27;;;;;;;3.53;2.67;;;;;7.90;94132.00;;;;7395655;19;20148;-77
2022/09/18 08:30:58;;;;;;;5.10;3.20;;;;;8.00;94143.00;;;;7398497;19;20125;-78
2022/09/18 08:33:25;;;;;;;11.23;3.43;;;;;8.10;94137.00;;;;7395744;19;20151;-77
2022/09/18 08:36:00;;;;;;;6.87;2.70;;;;;7.90;94123.00;;;;7396293;19;20155;-78
2022/09/18 08:38:27;;;;;;;8.93;2.90;;;;;8.00;94127.00;;;;7395246;19;20131;-78
2022/09/18 08:41:15;;;;;;;4.57;2.30;;;;;8.20;94137.00;;;;7396630;19;20149;-78
2022/09/18 08:44:02;;;;;;;8.67;2.57;;;;;8.40;94140.00;;;;7395182;19;20137;-79
2022/09/18 08:46:56;;;;;;;4.87;2.20;;;;;8.30;94135.00;;;;7396434;19;20153;-77
2022/09/18 08:49:44;;;;;;;4.60;2.10;;;;;8.20;94152.00;;;;7395600;19;20572;-77
2022/09/18 08:52:37;;;;;;;5.10;2.30;;;;;8.10;94151.00;;;;7395849;19;20136;-77
2022/09/18 08:55:17;;;;;;;5.47;2.17;;;;;8.10;94155.00;;;;7395533;19;20209;-78
2022/09/18 08:57:48;;;;;;;8.17;2.57;;;;;8.10;94142.00;;;;7394697;19;20612;-78
2022/09/18 09:00:25;;;;;;;4.33;2.10;;;;;7.90;94148.00;;;;7395867;19;20184;-77
2022/09/18 09:03:18;;;;;;;3.77;2.00;;;;;8.10;94139.00;;;;7395884;19;20153;-77
2022/09/18 09:05:58;;;;;;;7.83;2.40;;;;;8.60;94138.00;;;;7395095;19;20131;-78
2022/09/18 09:08:35;;;;;;;5.73;2.30;;;;;8.70;94141.00;;;;7394189;19;20132;-78
2022/09/18 09:11:40;;;;;;;4.27;2.00;;;;;8.60;94147.00;;;;7394949;19;20120;-78
2022/09/18 09:14:46;;;;;;;9.73;2.30;;;;;8.60;94145.00;;;;7391139;19;20515;-77
2022/09/18 09:17:39;;;;;;;7.80;2.20;;;;;8.70;94146.00;;;;7389318;19;20160;-77
2022/09/18 09:20:37;;;;;;;6.10;2.03;;;;;8.80;94153.00;;;;7396242;19;20113;-77
2022/09/18 09:23:27;;;;;;;7.03;2.03;;;;;9.00;94153.00;;;;7392606;19;20143;-77
2022/09/18 09:26:16;;;;;;;6.47;1.77;;;;;8.90;94144.00;;;;7392584;19;20587;-79
2022/09/18 09:29:00;;;;;;;3.80;1.83;;;;;9.20;94145.00;;;;7395564;19;20654;-77
2022/09/18 09:31:41;;;;;;;4.73;1.67;;;;;9.20;94147.00;;;;7398138;19;20125;-79
2022/09/18 09:34:33;;;;;;;3.70;1.57;;;;;9.70;94140.00;;;;7394044;19;20129;-78
2022/09/18 09:37:14;;;;;;;5.57;1.60;;;;;10.10;94137.00;;;;7395472;19;20140;-79
2022/09/18 09:40:06;;;;;;;3.83;1.80;;;;;10.10;94136.00;;;;7392130;19;20148;-79
2022/09/18 09:42:42;;;;;;;5.30;1.70;;;;;10.20;94139.00;;;;7394453;19;20152;-78
2022/09/18 09:45:34;;;;;;;5.15;1.77;;;;;10.40;94131.00;;;;7390500;19;20152;-80
2022/09/18 09:48:31;;;;;;;6.43;1.70;;;;;10.10;94123.00;;;;7392339;19;20635;-79
2022/09/18 09:51:31;;;;;;;4.60;1.50;;;;;10.60;94130.00;;;;7392172;19;20148;-79
2022/09/18 09:54:00;;;;;;;6.72;1.80;;;;;11.00;94120.00;;;;7393715;19;20160;-80
2022/09/18 09:56:58;;;;;;;6.05;1.45;;;;;10.80;94127.00;;;;7395323;19;20176;-77
2022/09/18 09:59:58;;;;;;;9.57;2.78;;;;;10.90;94120.00;;;;7391801;19;20499;-77
2022/09/18 10:03:05;;;;;;;4.45;1.20;;;;;10.90;94116.00;;;;7393427;19;20148;-79
2022/09/18 10:05:42;;;;;;;4.63;1.40;;;;;11.50;94108.00;;;;7390749;19;20148;-78
2022/09/18 10:08:48;;;;;;;5.40;1.48;;;;;11.80;94116.00;;;;7390509;19;20135;-79
2022/09/18 10:11:17;;;;;;;2.13;1.08;;;;;12.20;94107.00;;;;7389970;19;20883;-78
2022/09/18 10:14:16;;;;;;;3.70;1.65;;;;;12.00;94122.00;;;;7390942;19;20124;-78
2022/09/18 10:16:51;;;;;;;1.92;1.33;;;;;11.80;94112.00;;;;7392380;19;20152;-77
2022/09/18 10:19:38;;;;;;;4.18;1.23;;;;;12.00;94109.00;;;;7392780;19;20615;-76
2022/09/18 10:22:10;;;;;;;2.92;1.30;;;;;12.30;94106.00;;;;7392247;19;20136;-78
2022/09/18 10:25:12;;;;;;;6.30;1.80;;;;;12.50;94114.00;;;;7393101;19;20145;-75
2022/09/18 10:27:40;;;;;;;5.80;2.38;;;;;12.40;94110.00;;;;7390009;19;20170;-77
2022/09/18 10:30:15;;;;;;;3.60;1.05;;;;;12.50;94103.00;;;;7397944;19;20139;-76
2022/09/18 10:32:42;;;;;;;6.78;2.08;;;;;12.70;94101.00;;;;7402948;19;20152;-74
2022/09/18 10:35:28;;;;;;;5.97;1.50;;;;;12.80;94097.00;;;;7399524;19;20132;-77
2022/09/18 10:38:11;;;;;;;4.65;1.17;;;;;12.90;94106.00;;;;7399305;19;20607;-77
2022/09/18 10:40:40;;;;;;;2.30;0.95;;;;;12.10;94087.00;;;;7400117;19;20132;-77
2022/09/18 10:43:17;;;;;;;5.15;1.60;;;;;12.60;94090.00;;;;7395503;19;20140;-75
2022/09/18 10:45:51;;;;;;;3.00;1.25;;;;;12.50;94083.00;;;;7398116;19;20488;-76
2022/09/18 10:48:26;;;;;;;1.63;1.00;;;;;13.00;94078.00;;;;7398723;19;20140;-76
2022/09/18 10:51:04;;;;;;;2.72;1.27;;;;;13.50;94083.00;;;;7401766;19;20129;-75
2022/09/18 10:53:41;;;;;;;3.58;1.20;;;;;12.90;94090.00;;;;7398284;19;20452;-76
2022/09/18 10:56:18;;;;;;;3.30;1.08;;;;;12.00;94080.00;;;;7400004;19;20140;-76
2022/09/18 10:58:53;;;;;;;3.42;1.00;;;;;12.70;94071.00;;;;7397873;19;20471;-76
2022/09/18 11:01:24;;;;;;;2.20;1.13;;;;;12.70;94086.00;;;;7397984;19;20453;-77
2022/09/18 11:04:03;;;;;;;6.65;3.08;;;;;12.30;94097.00;;;;7399400;19;20491;-79
2022/09/18 11:06:42;;;;;;;2.42;1.27;;;;;12.60;94089.00;;;;7400230;19;20149;-78
2022/09/18 11:09:10;;;;;;;6.15;2.75;;;;;12.60;94100.00;;;;7400087;19;20561;-76
2022/09/18 11:11:50;;;;;;;3.60;1.52;;;;;13.20;94080.00;;;;7400410;19;20172;-77
2022/09/18 11:14:26;;;;;;;3.17;1.08;;;;;13.60;94066.00;;;;7402352;19;20164;-78
2022/09/18 11:17:08;;;;;;;3.90;1.20;;;;;14.00;94072.00;;;;7402728;19;20188;-76
2022/09/18 11:19:51;;;;;;;3.58;1.00;;;;;14.00;94058.00;;;;7401062;19;20200;-76
2022/09/18 11:22:45;;;;;;;3.65;1.05;;;;;14.00;94076.00;;;;7401952;19;20197;-77
2022/09/18 11:25:21;;;;;;;2.33;0.98;;;;;13.80;94065.00;;;;7395331;19;20939;-76
2022/09/18 11:27:57;;;;;;;2.00;0.70;;;;;13.00;94076.00;;;;7395149;19;20154;-75
2022/09/18 11:30:33;;;;;;;3.08;1.30;;;;;12.90;94062.00;;;;7397847;19;20270;-77
2022/09/18 11:33:23;;;;;;;1.80;1.00;;;;;12.30;94080.00;;;;7393042;19;20615;-76
2022/09/18 11:36:01;;;;;;;1.10;0.90;;;;;11.70;94072.00;;;;7393628;19;20153;-77
2022/09/18 11:38:45;;;;;;;3.35;0.90;;;;;11.70;94057.00;;;;7394345;19;20921;-76
2022/09/18 11:41:23;;;;;;;2.72;0.68;;;;;11.70;94066.00;;;;7391311;19;20192;-76
2022/09/18 11:44:27;;;;;;;1.83;0.93;;;;;11.50;94052.00;;;;7396830;19;20152;-74
2022/09/18 11:47:03;;;;;;;2.83;1.00;;;;;11.70;94055.00;;;;7395328;19;20230;-76
2022/09/18 11:49:48;;;;;;;6.88;2.03;;;;;11.80;94044.00;;;;7396934;19;20136;-75
2022/09/18 11:52:28;;;;;;;3.22;1.05;;;;;12.00;94061.00;;;;7398471;19;20165;-75
2022/09/18 11:55:31;;;;;;;6.15;1.67;;;;;12.30;94047.00;;;;7404473;19;20144;-79
2022/09/18 11:58:25;;;;;;;3.55;1.00;;;;;12.20;94055.00;;;;7395780;19;20507;-78
2022/09/18 12:01:13;;;;;;;3.15;1.20;;;;;12.50;94051.00;;;;7397415;19;20612;-79
2022/09/18 12:04:04;;;;;;;4.18;1.25;;;;;13.20;94049.00;;;;7395318;19;20154;-77
2022/09/18 12:07:09;;;;;;;2.58;1.15;;;;;12.70;94059.00;;;;7394892;19;20149;-77
2022/09/18 12:09:54;;;;;;;4.63;0.90;;;;;12.20;94038.00;;;;7395148;19;20607;-76
2022/09/18 12:12:59;;;;;;;2.45;1.40;;;;;12.70;94036.00;;;;7399707;19;20208;-80
2022/09/18 12:15:34;;;;;;;1.40;0.90;;;;;13.10;94024.00;;;;7392362;19;20152;-78
2022/09/18 12:18:25;;;;;;;1.92;0.80;;;;;13.00;94036.00;;;;7389881;19;20153;-77
2022/09/18 12:20:58;;;;;;;2.25;0.90;;;;;13.10;94031.00;;;;7393457;19;20955;-78
2022/09/18 12:23:36;;;;;;;1.52;0.80;;;;;13.00;94027.00;;;;7391870;19;20152;-76
2022/09/18 12:26:23;;;;;;;1.48;0.80;;;;;13.10;94025.00;;;;7397217;19;20214;-78
2022/09/18 12:29:16;;;;;;;1.40;0.95;;;;;12.80;94047.00;;;;7394726;19;20599;-76
2022/09/18 12:32:05;;;;;;;4.93;1.25;;;;;12.40;94051.00;;;;7391636;19;20144;-76
2022/09/18 12:34:57;;;;;;;10.07;4.03;;;;;12.10;94037.00;;;;7397353;19;20145;-78
2022/09/18 12:37:45;;;;;;;2.28;0.95;;;;;12.10;94036.00;;;;7393257;19;20124;-78
2022/09/18 12:40:30;;;;;;;15.65;8.35;;;;;12.20;94034.00;;;;7388881;19;20145;-77
2022/09/18 12:43:20;;;;;;;3.63;1.20;;;;;12.10;94036.00;;;;7389972;19;20129;-77
2022/09/18 12:46:13;;;;;;;7.50;4.65;;;;;11.60;94046.00;;;;7390771;19;20157;-76
2022/09/18 12:48:56;;;;;;;2.20;0.90;;;;;11.20;94032.00;;;;7388786;19;20132;-76
2022/09/18 12:51:42;;;;;;;4.07;1.50;;;;;11.10;94019.00;;;;7388952;19;20117;-77
2022/09/18 12:54:19;;;;;;;3.58;1.45;;;;;12.00;94014.00;;;;7389214;19;20145;-75
2022/09/18 12:57:03;;;;;;;5.10;1.95;;;;;12.30;94007.00;;;;7388741;19;20622;-77
2022/09/18 12:59:53;;;;;;;2.47;1.00;;;;;13.00;94017.00;;;;7389282;19;20237;-77
2022/09/18 13:02:59;;;;;;;5.85;2.28;;;;;13.30;94018.00;;;;7389733;19;20143;-77
2022/09/18 13:05:57;;;;;;;1.75;1.10;;;;;12.90;94014.00;;;;7388096;19;20149;-77
2022/09/18 13:08:47;;;;;;;1.25;0.68;;;;;12.20;94027.00;;;;7385119;19;20487;-76
2022/09/18 13:11:43;;;;;;;2.13;0.73;;;;;11.80;94030.00;;;;7388875;19;20157;-77
2022/09/18 13:14:18;;;;;;;7.43;1.00;;;;;11.70;94035.00;;;;7388844;19;20141;-77
2022/09/18 13:17:01;;;;;;;4.90;1.10;;;;;11.80;94028.00;;;;7387589;19;20155;-77